Time;durP1;ratioP1;P1;durP2;ratioP2;P2;SDS_P1;SDS_P2;PMS_P1;PMS_P2;Temp;Humidity;BMP_temperature;BMP_pressure;BME280_temperature;BME280_humidity;BME280_pressure;Samples;Min_cycle;Max_cycle;Signal;HPM_P1;HPM_P2
2022/07/04 00:01:12;;;;;;;5.70;2.00;;;18.00;72.20;;;;;;5046264;28;20417;-88
2022/07/04 00:03:38;;;;;;;6.13;1.93;;;18.00;72.60;;;;;;5047626;28;20186;-89
2022/07/04 00:06:04;;;;;;;3.70;2.53;;;18.00;72.90;;;;;;5038028;28;20304;-88
2022/07/04 00:08:29;;;;;;;4.73;1.70;;;18.00;72.50;;;;;;5021548;28;20229;-89
2022/07/04 00:10:55;;;;;;;5.33;1.60;;;18.00;72.40;;;;;;5038969;28;20234;-88
2022/07/04 00:13:46;;;;;;;5.43;2.10;;;18.00;71.80;;;;;;5020956;28;20729;-87
2022/07/04 00:16:12;;;;;;;4.93;2.10;;;17.90;72.50;;;;;;5041284;28;20196;-89
2022/07/04 00:18:39;;;;;;;3.10;2.13;;;17.90;72.50;;;;;;5047013;28;20202;-90
2022/07/04 00:21:04;;;;;;;7.85;2.72;;;18.00;71.90;;;;;;5053288;28;20415;-89
2022/07/04 00:23:30;;;;;;;4.30;2.40;;;17.90;72.10;;;;;;5046846;28;20241;-89
2022/07/04 00:25:56;;;;;;;5.03;2.30;;;17.90;73.00;;;;;;5051992;28;20192;-91
2022/07/04 00:28:21;;;;;;;7.23;2.80;;;17.90;73.70;;;;;;5059590;28;20182;-90
2022/07/04 00:30:47;;;;;;;4.43;2.10;;;17.80;73.20;;;;;;5059811;28;20209;-91
2022/07/04 00:33:13;;;;;;;5.20;2.33;;;17.80;73.30;;;;;;5059564;28;20210;-89
2022/07/04 00:39:05;;;;;;;7.75;2.80;;;17.80;73.60;;;;;;5040210;28;20225;-90
2022/07/04 00:41:31;;;;;;;10.25;2.55;;;17.70;74.20;;;;;;5018560;28;20155;-90
2022/07/04 00:44:08;;;;;;;6.73;2.50;;;17.60;74.50;;;;;;5017747;28;20189;-89
2022/07/04 00:46:35;;;;;;;5.65;2.70;;;17.60;74.60;;;;;;5024017;28;20166;-90
2022/07/04 00:49:03;;;;;;;5.75;2.88;;;17.60;74.90;;;;;;5037377;28;20189;-89
2022/07/04 00:51:29;;;;;;;6.75;2.60;;;17.50;75.00;;;;;;5021042;28;20183;-89
2022/07/04 00:54:17;;;;;;;8.15;2.90;;;17.50;75.10;;;;;;5033169;28;20218;-89
2022/07/04 00:56:44;;;;;;;8.43;2.90;;;17.40;75.10;;;;;;5016794;28;20546;-90
2022/07/04 00:59:10;;;;;;;4.50;2.75;;;17.40;75.60;;;;;;5016801;28;20201;-90
2022/07/04 01:01:36;;;;;;;6.68;3.45;;;17.40;75.70;;;;;;5036447;28;20205;-91
2022/07/04 01:04:04;;;;;;;5.53;2.67;;;17.40;75.70;;;;;;5036876;28;20654;-90
2022/07/04 01:06:33;;;;;;;4.90;3.17;;;17.40;76.00;;;;;;5036953;28;20475;-91
2022/07/04 01:08:59;;;;;;;10.23;2.88;;;17.40;75.90;;;;;;5037464;28;20179;-90
2022/07/04 01:11:25;;;;;;;11.07;3.60;;;17.30;75.90;;;;;;5039759;28;20173;-89
2022/07/04 01:13:53;;;;;;;7.45;3.63;;;17.40;76.00;;;;;;5043332;28;20197;-90
2022/07/04 01:16:19;;;;;;;8.95;3.05;;;17.30;76.20;;;;;;5043535;28;20261;-89
2022/07/04 01:18:45;;;;;;;8.90;3.00;;;17.30;76.40;;;;;;5049562;28;20241;-90
2022/07/04 01:21:11;;;;;;;9.60;2.97;;;17.30;76.20;;;;;;5045504;28;20181;-89
2022/07/04 01:23:40;;;;;;;5.93;2.90;;;17.30;76.10;;;;;;5036562;28;20948;-90
2022/07/04 01:26:08;;;;;;;9.70;2.80;;;17.30;75.80;;;;;;5036236;28;20185;-90
2022/07/04 01:28:35;;;;;;;3.67;2.22;;;17.30;75.70;;;;;;5037123;28;20201;-89
2022/07/04 01:31:00;;;;;;;6.45;2.67;;;17.30;76.10;;;;;;5041934;28;20185;-89
2022/07/04 01:33:26;;;;;;;5.80;3.07;;;17.30;75.90;;;;;;5054212;28;20229;-89
2022/07/04 01:35:52;;;;;;;6.77;2.40;;;17.20;75.40;;;;;;5036788;28;20963;-90
2022/07/04 01:38:18;;;;;;;5.80;2.70;;;17.20;75.90;;;;;;5035997;28;20449;-89
2022/07/04 01:40:45;;;;;;;5.13;2.40;;;17.20;75.80;;;;;;5041337;28;20423;-89
2022/07/04 01:43:11;;;;;;;4.18;2.38;;;17.20;75.80;;;;;;5037073;28;20204;-88
2022/07/04 01:45:39;;;;;;;3.90;2.73;;;17.20;75.50;;;;;;5042072;28;20182;-89
2022/07/04 01:48:06;;;;;;;6.18;2.60;;;17.20;75.60;;;;;;5042325;28;20440;-89
2022/07/04 01:50:32;;;;;;;5.10;2.85;;;17.10;75.60;;;;;;5036433;28;20317;-88
2022/07/04 01:52:58;;;;;;;6.40;3.27;;;17.10;76.00;;;;;;5039585;28;20288;-90
2022/07/04 01:55:23;;;;;;;9.60;4.03;;;17.10;76.30;;;;;;5048338;28;20423;-91
2022/07/04 01:57:49;;;;;;;5.43;2.83;;;17.00;76.10;;;;;;5039234;28;20204;-90
2022/07/04 02:02:59;;;;;;;8.70;2.53;;;16.90;76.20;;;;;;5036418;28;20423;-90
2022/07/04 02:05:25;;;;;;;3.37;2.20;;;16.90;76.40;;;;;;5035106;28;20558;-90
2022/07/04 02:07:55;;;;;;;4.27;2.13;;;16.90;76.60;;;;;;5036422;28;20527;-90
2022/07/04 02:10:22;;;;;;;5.68;2.70;;;16.90;76.90;;;;;;5035775;28;20427;-90
2022/07/04 02:13:03;;;;;;;6.00;2.75;;;16.90;76.70;;;;;;5035550;28;20642;-89
2022/07/04 02:15:36;;;;;;;7.78;3.35;;;16.80;76.60;;;;;;5041901;28;20178;-89
2022/07/04 02:18:07;;;;;;;6.68;3.25;;;16.80;76.70;;;;;;5042070;28;20202;-89
2022/07/04 02:20:35;;;;;;;11.23;3.25;;;16.80;77.00;;;;;;5036463;28;20202;-89
2022/07/04 02:23:02;;;;;;;5.93;3.22;;;16.70;77.10;;;;;;5036877;28;20212;-89
2022/07/04 02:25:27;;;;;;;4.82;3.55;;;16.70;77.00;;;;;;5053372;28;20192;-90
2022/07/04 02:27:53;;;;;;;5.60;3.50;;;16.70;77.00;;;;;;5052282;28;20213;-89
2022/07/04 02:30:19;;;;;;;8.23;4.07;;;16.70;77.00;;;;;;5048662;28;20193;-89
2022/07/04 02:32:45;;;;;;;7.50;3.50;;;16.70;76.90;;;;;;5050698;28;20270;-90
2022/07/04 02:35:11;;;;;;;10.87;4.70;;;16.70;77.00;;;;;;5051189;28;20265;-89
2022/07/04 02:37:37;;;;;;;10.17;5.40;;;16.70;77.10;;;;;;5051284;28;20210;-89
2022/07/04 02:40:04;;;;;;;9.23;4.63;;;16.70;77.00;;;;;;5058470;28;20432;-89
2022/07/04 02:42:33;;;;;;;11.52;4.68;;;16.70;76.60;;;;;;5057602;28;20174;-89
2022/07/04 02:44:59;;;;;;;7.05;4.55;;;16.60;76.40;;;;;;5057609;28;20165;-89
2022/07/04 02:47:25;;;;;;;11.40;4.45;;;16.60;76.20;;;;;;5057481;28;20202;-91
2022/07/04 02:49:51;;;;;;;10.10;4.75;;;16.60;76.40;;;;;;5057615;28;20177;-91
2022/07/04 02:52:17;;;;;;;5.23;3.80;;;16.60;76.50;;;;;;5053921;28;20206;-90
2022/07/04 02:54:44;;;;;;;6.90;4.40;;;16.60;76.50;;;;;;5035499;28;20424;-90
2022/07/04 02:57:11;;;;;;;8.68;4.53;;;16.60;76.50;;;;;;5035748;28;20202;-90
2022/07/04 02:59:36;;;;;;;7.47;4.47;;;16.60;76.50;;;;;;5018362;28;20240;-89
2022/07/04 03:02:03;;;;;;;6.33;4.77;;;16.50;76.30;;;;;;5038492;28;20173;-91
2022/07/04 03:04:28;;;;;;;5.05;4.15;;;16.60;76.50;;;;;;5038971;28;20619;-91
2022/07/04 03:06:54;;;;;;;7.70;5.07;;;16.60;76.60;;;;;;5040112;28;20221;-92
2022/07/04 03:09:20;;;;;;;8.53;5.17;;;16.60;76.70;;;;;;5057118;28;20186;-90
2022/07/04 03:11:45;;;;;;;7.30;5.20;;;16.50;76.90;;;;;;5039755;28;20265;-90
2022/07/04 03:14:11;;;;;;;6.73;4.30;;;16.50;77.10;;;;;;5039287;28;20231;-90
2022/07/04 03:16:37;;;;;;;8.33;5.13;;;16.50;77.50;;;;;;5038799;28;20273;-91
2022/07/04 03:19:03;;;;;;;8.00;4.60;;;16.50;77.50;;;;;;5039516;28;20268;-90
2022/07/04 03:21:29;;;;;;;8.48;4.65;;;16.50;77.50;;;;;;5058786;28;20582;-91
2022/07/04 03:23:58;;;;;;;9.10;4.20;;;16.50;77.40;;;;;;5044815;28;20196;-91
2022/07/04 03:26:29;;;;;;;7.43;3.90;;;16.50;77.50;;;;;;5039079;28;20668;-89
2022/07/04 03:28:55;;;;;;;6.60;4.30;;;16.50;77.40;;;;;;5038442;28;20213;-89
2022/07/04 03:31:21;;;;;;;7.03;4.50;;;16.50;77.40;;;;;;5037897;28;20647;-89
2022/07/04 03:33:48;;;;;;;5.65;4.00;;;16.40;77.20;;;;;;5039317;28;20201;-89
2022/07/04 03:36:13;;;;;;;4.13;3.72;;;16.40;76.90;;;;;;5038009;28;20188;-89
2022/07/04 03:39:03;;;;;;;5.10;4.50;;;16.30;77.00;;;;;;5037705;28;20575;-89
2022/07/04 03:41:29;;;;;;;5.60;4.00;;;16.40;77.10;;;;;;5039681;28;20173;-90
2022/07/04 03:43:54;;;;;;;6.60;3.67;;;16.40;77.00;;;;;;5037497;28;20209;-89
2022/07/04 03:46:20;;;;;;;4.47;3.43;;;16.40;76.80;;;;;;5037991;28;20482;-90
2022/07/04 03:48:46;;;;;;;3.83;3.37;;;16.40;76.80;;;;;;5025988;28;20202;-89
2022/07/04 03:51:13;;;;;;;5.53;3.53;;;16.50;76.30;;;;;;5039233;28;20181;-89
2022/07/04 03:53:42;;;;;;;6.18;3.30;;;16.40;76.40;;;;;;5038710;28;20216;-88
2022/07/04 03:56:08;;;;;;;3.95;2.80;;;16.40;76.40;;;;;;5038986;28;20177;-89
2022/07/04 03:58:34;;;;;;;5.10;3.67;;;16.40;76.30;;;;;;5041287;28;20260;-89
2022/07/04 04:01:07;;;;;;;6.53;3.97;;;16.50;76.40;;;;;;5041900;28;20184;-89
2022/07/04 04:06:17;;;;;;;2.92;2.70;;;16.50;76.20;;;;;;5045159;28;20212;-90
2022/07/04 04:08:42;;;;;;;4.57;2.83;;;16.50;75.60;;;;;;5052483;28;20193;-90
2022/07/04 04:11:08;;;;;;;5.27;3.13;;;16.50;75.10;;;;;;5057212;28;20181;-90
2022/07/04 04:13:34;;;;;;;8.30;3.43;;;16.50;75.10;;;;;;5058468;28;20213;-89
2022/07/04 04:16:00;;;;;;;6.80;4.43;;;16.40;75.10;;;;;;5055687;28;20189;-90
2022/07/04 04:18:25;;;;;;;5.97;3.63;;;16.50;75.30;;;;;;5056401;28;20479;-89
2022/07/04 04:20:51;;;;;;;5.90;3.30;;;16.40;74.80;;;;;;5041695;28;20792;-89
2022/07/04 04:23:17;;;;;;;6.80;3.30;;;16.40;74.80;;;;;;5038022;28;20818;-89
2022/07/04 04:25:43;;;;;;;6.27;3.73;;;16.40;74.70;;;;;;5037180;28;20197;-89
2022/07/04 04:28:08;;;;;;;4.73;3.17;;;16.50;74.70;;;;;;5036794;28;20193;-89
2022/07/04 04:30:34;;;;;;;4.80;3.00;;;16.50;74.40;;;;;;5053130;28;20463;-91
2022/07/04 04:33:00;;;;;;;5.30;3.20;;;16.50;74.30;;;;;;5052236;28;20232;-88
2022/07/04 04:35:26;;;;;;;4.97;3.03;;;16.50;74.40;;;;;;5037720;28;20174;-90
2022/07/04 04:37:51;;;;;;;6.20;3.03;;;16.50;74.40;;;;;;5020268;28;20202;-89
2022/07/04 04:40:17;;;;;;;6.77;3.30;;;16.50;74.10;;;;;;5038781;28;20173;-89
2022/07/04 04:42:43;;;;;;;5.40;2.42;;;16.60;74.30;;;;;;5041608;28;20182;-89
2022/07/04 04:45:09;;;;;;;6.47;3.03;;;16.70;73.30;;;;;;5039894;28;20189;-89
2022/07/04 04:47:43;;;;;;;4.43;3.20;;;16.80;72.20;;;;;;5042366;28;20459;-89
2022/07/04 04:50:14;;;;;;;3.88;2.88;;;16.80;72.10;;;;;;5054281;28;20265;-90
2022/07/04 04:52:41;;;;;;;7.88;2.65;;;16.90;72.70;;;;;;5052575;28;20202;-89
2022/07/04 04:55:07;;;;;;;7.22;2.88;;;16.90;72.60;;;;;;5054621;28;20237;-89
2022/07/04 04:57:33;;;;;;;8.80;3.03;;;16.80;73.00;;;;;;5059176;28;20193;-89
2022/07/04 04:59:59;;;;;;;6.25;2.72;;;16.90;73.30;;;;;;5059156;28;20213;-92
2022/07/04 05:02:26;;;;;;;6.28;3.05;;;17.00;72.90;;;;;;5059900;28;20162;-92
2022/07/04 05:04:52;;;;;;;5.10;3.17;;;17.10;72.40;;;;;;5059056;28;20254;-92
2022/07/04 05:07:18;;;;;;;15.00;4.28;;;17.00;72.70;;;;;;5056381;28;20205;-90
2022/07/04 05:09:44;;;;;;;8.68;2.85;;;17.00;73.00;;;;;;5040439;28;20186;-91
2022/07/04 05:12:10;;;;;;;6.47;3.20;;;17.00;73.10;;;;;;5051925;28;20210;-90
2022/07/04 05:14:36;;;;;;;9.23;3.97;;;17.00;72.90;;;;;;5038274;28;20276;-90
2022/07/04 05:17:02;;;;;;;6.40;3.10;;;17.10;73.00;;;;;;5051002;28;20202;-90
2022/07/04 05:19:27;;;;;;;6.10;2.73;;;17.20;72.60;;;;;;5055138;28;20248;-89
2022/07/04 05:21:53;;;;;;;5.20;2.23;;;17.50;72.30;;;;;;5042228;28;20428;-90
2022/07/04 05:24:19;;;;;;;4.00;2.50;;;18.40;70.70;;;;;;5036990;28;20648;-90
2022/07/04 05:26:45;;;;;;;10.50;3.43;;;19.60;67.90;;;;;;5037496;28;20182;-90
2022/07/04 05:29:11;;;;;;;11.17;2.77;;;20.80;62.90;;;;;;5020533;28;20324;-90
2022/07/04 05:31:36;;;;;;;4.33;2.77;;;21.30;58.30;;;;;;5038503;28;20343;-91
2022/07/04 05:34:02;;;;;;;7.77;2.97;;;22.00;55.80;;;;;;5041784;28;20201;-91
2022/07/04 05:36:29;;;;;;;11.63;4.30;;;22.70;53.60;;;;;;5044886;28;20177;-92
2022/07/04 05:38:55;;;;;;;5.57;2.63;;;23.20;51.70;;;;;;5043011;28;20554;-91
2022/07/04 05:41:20;;;;;;;8.70;3.40;;;23.60;50.50;;;;;;5023847;28;20454;-91
2022/07/04 05:43:46;;;;;;;7.13;3.10;;;24.30;48.50;;;;;;5037229;28;20420;-91
2022/07/04 05:46:12;;;;;;;10.27;3.23;;;24.30;47.70;;;;;;5035744;28;20313;-92
2022/07/04 05:48:41;;;;;;;6.57;2.80;;;24.40;47.50;;;;;;5035651;28;20208;-92
2022/07/04 05:51:07;;;;;;;4.53;2.53;;;25.00;46.70;;;;;;5035503;28;20174;-91
2022/07/04 05:53:33;;;;;;;6.77;2.57;;;25.40;45.90;;;;;;5035933;28;20498;-90
2022/07/04 05:55:58;;;;;;;11.43;3.50;;;26.40;43.40;;;;;;5037522;28;20504;-90
2022/07/04 05:58:24;;;;;;;6.60;3.73;;;26.40;41.90;;;;;;5035038;28;20233;-89
2022/07/04 06:00:50;;;;;;;5.83;2.80;;;25.80;43.40;;;;;;5035541;28;20261;-90
2022/07/04 06:03:16;;;;;;;8.60;3.73;;;26.30;42.60;;;;;;5036562;28;20186;-89
2022/07/04 06:05:42;;;;;;;7.50;4.00;;;26.40;42.40;;;;;;5036468;28;20228;-89
2022/07/04 06:08:07;;;;;;;8.10;4.10;;;25.60;44.10;;;;;;5039502;28;20206;-92
2022/07/04 06:10:33;;;;;;;7.40;4.40;;;24.60;47.20;;;;;;5054563;28;20178;-89
2022/07/04 06:12:59;;;;;;;7.20;4.13;;;24.70;48.60;;;;;;5037594;28;20253;-90
2022/07/04 06:15:25;;;;;;;11.10;4.83;;;24.10;49.80;;;;;;5036122;28;20470;-90
2022/07/04 06:17:51;;;;;;;8.83;4.73;;;23.70;51.10;;;;;;5037823;28;20440;-91
2022/07/04 06:20:17;;;;;;;11.83;4.17;;;23.60;52.00;;;;;;5037223;28;20436;-91
2022/07/04 06:22:46;;;;;;;9.43;5.07;;;23.60;52.20;;;;;;5054258;28;20428;-92
2022/07/04 06:25:16;;;;;;;4.47;3.00;;;23.40;53.00;;;;;;5042190;28;20213;-91
2022/07/04 06:27:44;;;;;;;7.20;4.03;;;24.00;52.00;;;;;;5036240;28;20531;-91
2022/07/04 06:30:10;;;;;;;10.73;4.57;;;24.40;51.20;;;;;;5035361;28;20420;-90
2022/07/04 06:32:48;;;;;;;8.90;4.10;;;24.40;51.10;;;;;;5034698;28;20986;-90
2022/07/04 06:41:32;;;;;;;8.97;4.30;;;26.00;45.80;;;;;;5038902;28;20408;-90
2022/07/04 06:43:58;;;;;;;9.30;4.90;;;25.60;46.20;;;;;;5037000;28;20412;-89
2022/07/04 06:46:23;;;;;;;5.90;3.67;;;24.90;48.90;;;;;;5045452;28;20187;-91
2022/07/04 06:48:49;;;;;;;6.10;3.13;;;25.50;47.50;;;;;;5045875;28;20229;-89
2022/07/04 06:51:15;;;;;;;8.13;3.57;;;26.10;45.00;;;;;;5037017;28;20727;-89
2022/07/04 06:53:41;;;;;;;12.67;3.13;;;25.80;45.90;;;;;;5034874;28;20682;-89
2022/07/04 06:56:07;;;;;;;3.60;2.60;;;25.50;47.80;;;;;;5037542;28;20408;-88
2022/07/04 06:58:33;;;;;;;8.53;3.20;;;25.90;46.20;;;;;;5043938;28;20441;-89
2022/07/04 07:00:59;;;;;;;11.30;4.07;;;25.90;46.00;;;;;;5053896;28;20401;-90
2022/07/04 07:03:27;;;;;;;6.67;3.60;;;26.30;45.10;;;;;;5045177;28;20434;-89
2022/07/04 07:05:53;;;;;;;13.90;4.40;;;26.00;46.00;;;;;;5042424;28;20425;-90
2022/07/04 07:08:18;;;;;;;7.77;3.80;;;25.30;48.00;;;;;;5044357;28;20471;-89
2022/07/04 07:10:50;;;;;;;6.10;3.43;;;25.20;49.00;;;;;;5038932;28;20193;-89
2022/07/04 07:13:22;;;;;;;4.53;2.53;;;24.90;49.60;;;;;;5052573;28;20197;-89
2022/07/04 07:15:48;;;;;;;4.83;2.77;;;25.50;47.80;;;;;;5055388;28;20401;-90
2022/07/04 07:18:14;;;;;;;5.97;3.33;;;25.60;47.20;;;;;;5056720;28;20495;-90
2022/07/04 07:20:40;;;;;;;6.87;3.53;;;25.90;44.60;;;;;;5056277;28;20185;-90
2022/07/04 07:23:06;;;;;;;6.83;3.30;;;25.90;44.20;;;;;;5055728;28;20527;-91
2022/07/04 07:25:31;;;;;;;7.37;3.00;;;26.00;44.50;;;;;;5049356;28;20173;-89
2022/07/04 07:27:58;;;;;;;9.83;3.13;;;25.80;43.80;;;;;;5038982;28;20220;-90
2022/07/04 07:30:24;;;;;;;7.30;3.17;;;25.60;44.60;;;;;;5037689;28;20482;-89
2022/07/04 07:32:50;;;;;;;5.37;3.00;;;25.40;45.80;;;;;;5042083;28;20447;-91
2022/07/04 07:35:21;;;;;;;6.50;3.10;;;25.20;47.30;;;;;;5028367;28;20421;-90
2022/07/04 07:37:47;;;;;;;6.70;4.00;;;25.20;45.80;;;;;;5044795;28;20210;-90
2022/07/04 07:40:14;;;;;;;7.20;3.00;;;24.70;47.50;;;;;;5042049;28;20429;-90
2022/07/04 07:42:39;;;;;;;8.37;3.73;;;24.00;49.60;;;;;;5037995;28;20478;-90
2022/07/04 07:45:06;;;;;;;8.40;3.23;;;24.00;48.00;;;;;;5038895;28;20417;-90
2022/07/04 07:47:32;;;;;;;5.13;2.70;;;23.60;49.50;;;;;;5055456;28;20212;-90
2022/07/04 07:49:58;;;;;;;5.77;2.83;;;23.40;49.10;;;;;;5059341;28;20404;-90
2022/07/04 07:52:23;;;;;;;4.47;2.90;;;23.10;51.30;;;;;;5052283;28;20492;-90
2022/07/04 07:54:49;;;;;;;5.03;3.00;;;22.90;53.00;;;;;;5046183;28;20442;-90
2022/07/04 07:57:15;;;;;;;10.73;3.47;;;22.50;53.60;;;;;;5042926;28;20204;-90
2022/07/04 07:59:41;;;;;;;7.90;3.30;;;22.20;54.60;;;;;;5022176;28;20244;-90
2022/07/04 08:02:07;;;;;;;10.90;4.03;;;22.00;55.20;;;;;;5052936;28;20425;-91
2022/07/04 08:04:37;;;;;;;10.00;3.80;;;21.80;55.70;;;;;;5066266;23;20170;-88
2022/07/04 08:07:06;;;;;;;5.43;2.90;;;21.60;56.30;;;;;;4974728;28;20778;-90
2022/07/04 08:09:32;;;;;;;5.90;3.13;;;21.60;56.60;;;;;;4975327;28;20927;-89
2022/07/04 08:11:58;;;;;;;7.83;2.90;;;21.40;56.40;;;;;;4976424;28;20418;-87
2022/07/04 08:14:25;;;;;;;8.47;3.10;;;21.60;56.50;;;;;;4975439;28;20454;-87
2022/07/04 08:16:51;;;;;;;7.33;3.27;;;21.60;56.40;;;;;;4974780;28;20866;-87
2022/07/04 08:19:17;;;;;;;12.07;3.50;;;21.70;57.00;;;;;;4975869;28;20454;-87
2022/07/04 08:21:42;;;;;;;5.83;3.33;;;21.80;56.30;;;;;;4976732;28;20263;-87
2022/07/04 08:24:08;;;;;;;6.83;3.20;;;22.00;55.10;;;;;;4975562;28;20604;-87
2022/07/04 08:26:41;;;;;;;8.90;3.10;;;22.20;54.90;;;;;;4976777;28;20204;-87
2022/07/04 08:29:07;;;;;;;7.57;3.53;;;22.10;55.50;;;;;;4975838;28;20424;-88
2022/07/04 08:31:32;;;;;;;8.63;2.93;;;21.90;56.30;;;;;;4975444;28;20442;-88
2022/07/04 08:33:58;;;;;;;10.43;3.43;;;21.80;56.30;;;;;;4975619;28;20237;-89
2022/07/04 08:36:24;;;;;;;4.80;2.50;;;21.80;57.40;;;;;;4975503;28;20229;-88
2022/07/04 08:38:49;;;;;;;6.50;3.63;;;21.80;57.70;;;;;;4975030;28;20184;-88
2022/07/04 08:41:17;;;;;;;12.77;3.33;;;21.60;57.50;;;;;;4975274;28;20580;-88
2022/07/04 08:43:48;;;;;;;8.70;3.53;;;21.50;58.00;;;;;;4975054;28;20230;-88
2022/07/04 08:46:18;;;;;;;10.70;2.27;;;21.40;57.80;;;;;;4976720;28;20529;-88
2022/07/04 08:48:51;;;;;;;4.40;2.67;;;21.40;58.00;;;;;;4974275;28;20423;-88
2022/07/04 08:51:34;;;;;;;6.40;2.67;;;21.40;57.90;;;;;;4975458;28;20423;-88
2022/07/04 08:58:25;;;;;;;3.80;2.20;;;21.40;58.00;;;;;;4974821;28;20478;-88
2022/07/04 08:59:31;;;;;;;4.93;2.43;;;21.50;56.70;;;;;;4978009;28;20583;-87
2022/07/04 09:02:16;;;;;;;5.27;1.80;;;21.60;57.20;;;;;;4978747;28;20459;-87
2022/07/04 09:04:44;;;;;;;7.43;2.77;;;21.60;57.30;;;;;;4976226;28;20314;-90
2022/07/04 09:07:12;;;;;;;5.13;2.93;;;21.50;57.10;;;;;;4977698;28;20423;-88
2022/07/04 09:09:40;;;;;;;3.63;2.13;;;21.40;57.00;;;;;;4978886;28;20472;-88
2022/07/04 09:12:08;;;;;;;5.33;2.33;;;21.40;57.50;;;;;;4982333;28;20430;-87
2022/07/04 09:14:34;;;;;;;6.93;3.33;;;21.80;56.50;;;;;;4979155;28;20478;-89
2022/07/04 09:17:00;;;;;;;7.30;3.10;;;22.10;56.00;;;;;;4982732;28;20438;-89
2022/07/04 09:19:26;;;;;;;4.00;2.33;;;22.30;55.50;;;;;;4977999;28;20196;-88
2022/07/04 09:21:52;;;;;;;9.13;3.00;;;22.40;55.20;;;;;;4974883;28;20450;-88
2022/07/04 09:24:43;;;;;;;6.67;2.43;;;22.40;55.90;;;;;;4975955;28;20990;-87
2022/07/04 09:27:09;;;;;;;11.07;2.73;;;22.40;55.60;;;;;;4975062;28;20190;-87
2022/07/04 09:29:53;;;;;;;4.63;2.40;;;22.50;55.30;;;;;;4977038;28;20518;-87
2022/07/04 09:32:38;;;;;;;5.67;2.67;;;22.60;55.00;;;;;;4976930;28;21044;-87
2022/07/04 09:35:06;;;;;;;6.60;2.80;;;22.50;56.60;;;;;;4976146;28;20446;-87
2022/07/04 09:37:38;;;;;;;5.43;2.77;;;22.40;56.60;;;;;;4976970;28;20443;-87
2022/07/04 09:40:07;;;;;;;5.77;2.53;;;22.30;57.30;;;;;;4977917;28;20861;-87
2022/07/04 09:42:38;;;;;;;6.63;2.70;;;22.20;57.30;;;;;;4979340;28;20411;-87
2022/07/04 09:45:06;;;;;;;5.43;2.33;;;22.10;56.50;;;;;;4979104;28;20443;-88
2022/07/04 09:47:31;;;;;;;4.30;2.37;;;22.10;56.50;;;;;;4976845;28;20985;-88
2022/07/04 09:50:11;;;;;;;5.50;2.07;;;22.30;55.90;;;;;;4977786;28;20483;-88
2022/07/04 09:52:50;;;;;;;6.93;2.70;;;22.60;54.70;;;;;;4978555;28;20267;-88
2022/07/04 09:55:40;;;;;;;4.27;3.03;;;22.50;56.10;;;;;;4977887;28;20578;-88
2022/07/04 09:58:07;;;;;;;4.37;2.80;;;22.50;56.70;;;;;;4976624;28;20415;-87
2022/07/04 10:00:35;;;;;;;14.10;3.30;;;22.70;56.90;;;;;;4976208;28;20487;-87
2022/07/04 10:03:20;;;;;;;5.73;3.17;;;22.60;57.20;;;;;;4977505;28;20523;-88
2022/07/04 10:05:47;;;;;;;6.20;3.60;;;22.60;57.50;;;;;;4983189;28;20596;-88
2022/07/04 10:08:20;;;;;;;7.70;4.20;;;22.70;57.50;;;;;;4977870;28;20558;-87
2022/07/04 10:10:47;;;;;;;4.80;3.83;;;22.40;56.60;;;;;;4977370;28;20542;-87
2022/07/04 10:13:13;;;;;;;6.87;3.77;;;22.40;57.30;;;;;;4960819;28;20487;-87
2022/07/04 10:15:41;;;;;;;8.03;2.80;;;22.20;56.30;;;;;;4976727;28;20443;-88
2022/07/04 10:18:08;;;;;;;4.87;2.90;;;22.00;55.80;;;;;;4979616;28;20481;-87
2022/07/04 10:20:35;;;;;;;9.87;4.77;;;22.20;56.70;;;;;;4960866;28;20423;-88
2022/07/04 10:23:02;;;;;;;5.03;3.10;;;22.30;56.80;;;;;;4977776;28;20950;-87
2022/07/04 10:25:29;;;;;;;4.50;2.93;;;22.40;56.60;;;;;;4977617;28;20879;-88
2022/07/04 10:27:55;;;;;;;3.30;2.30;;;22.70;55.30;;;;;;4977076;28;20433;-88
2022/07/04 10:30:34;;;;;;;7.10;3.47;;;22.80;55.00;;;;;;4978321;28;20423;-87
2022/07/04 10:33:02;;;;;;;7.03;3.07;;;23.40;51.90;;;;;;4979831;28;20459;-87
2022/07/04 10:35:53;;;;;;;4.93;3.13;;;23.60;52.30;;;;;;4977875;28;20576;-87
2022/07/04 10:38:23;;;;;;;4.23;2.03;;;23.60;53.30;;;;;;4961170;28;20559;-87
2022/07/04 10:40:51;;;;;;;7.93;3.03;;;23.40;51.60;;;;;;4976999;28;20613;-87
2022/07/04 10:43:40;;;;;;;8.40;2.83;;;23.60;52.30;;;;;;4977330;28;20465;-88
2022/07/04 10:46:15;;;;;;;4.73;3.00;;;23.20;50.90;;;;;;4976936;28;20450;-87
2022/07/04 10:49:02;;;;;;;7.47;3.17;;;23.00;52.70;;;;;;4975764;28;20434;-87
2022/07/04 10:51:41;;;;;;;5.37;2.87;;;23.10;51.30;;;;;;4961085;28;20428;-87
2022/07/04 10:54:13;;;;;;;4.10;2.50;;;23.00;51.50;;;;;;4976586;28;20478;-87
2022/07/04 10:57:11;;;;;;;3.67;2.67;;;22.90;51.60;;;;;;4976688;28;20439;-88
2022/07/04 10:59:37;;;;;;;3.80;2.60;;;23.10;51.40;;;;;;4963638;28;20846;-87
2022/07/04 11:02:06;;;;;;;4.60;2.57;;;23.10;50.30;;;;;;4987797;28;20415;-88
2022/07/04 11:04:55;;;;;;;4.67;3.30;;;23.20;50.90;;;;;;4987332;28;20427;-87
2022/07/04 11:07:30;;;;;;;5.73;2.30;;;23.30;51.00;;;;;;4976578;28;20435;-87
2022/07/04 11:10:12;;;;;;;3.30;2.40;;;23.40;51.20;;;;;;4976070;28;21042;-89
2022/07/04 11:12:59;;;;;;;6.87;3.07;;;23.20;50.50;;;;;;4976627;28;20483;-88
2022/07/04 11:15:25;;;;;;;3.23;2.10;;;23.50;49.90;;;;;;4980289;28;20880;-88
2022/07/04 11:17:52;;;;;;;3.17;2.30;;;23.40;51.10;;;;;;4976168;28;20423;-87
2022/07/04 11:20:18;;;;;;;6.60;3.20;;;23.60;51.00;;;;;;4978591;28;20419;-88
2022/07/04 11:22:44;;;;;;;6.13;2.87;;;23.90;48.40;;;;;;4979714;28;20419;-87
2022/07/04 11:25:11;;;;;;;4.27;2.93;;;23.60;48.90;;;;;;4982433;28;20450;-88
2022/07/04 11:27:38;;;;;;;6.70;2.80;;;23.60;49.30;;;;;;4981163;28;20190;-87
2022/07/04 11:30:06;;;;;;;5.97;2.27;;;23.90;49.60;;;;;;4980746;28;20458;-88
2022/07/04 11:32:34;;;;;;;4.80;2.23;;;24.20;49.20;;;;;;4984245;28;20528;-88
2022/07/04 11:35:01;;;;;;;5.00;2.30;;;24.20;49.50;;;;;;4998145;28;20446;-88
2022/07/04 11:37:27;;;;;;;5.43;2.80;;;24.10;48.80;;;;;;4995145;28;20903;-87
2022/07/04 11:45:02;;;;;;;5.63;3.00;;;24.30;47.70;;;;;;4979685;28;20427;-88
2022/07/04 11:45:48;;;;;;;5.93;3.23;;;23.80;48.70;;;;;;4980101;28;20465;-87
2022/07/04 11:48:31;;;;;;;7.60;2.43;;;23.70;48.40;;;;;;4978236;28;20427;-88
2022/07/04 11:50:57;;;;;;;2.60;2.37;;;23.70;47.50;;;;;;4979988;28;20257;-88
2022/07/04 11:53:23;;;;;;;9.23;3.30;;;23.80;46.90;;;;;;4980828;28;20499;-88
2022/07/04 11:56:01;;;;;;;8.60;2.60;;;23.80;47.40;;;;;;4981045;28;20204;-87
2022/07/04 11:58:42;;;;;;;4.90;2.07;;;23.90;47.20;;;;;;4978778;28;20218;-87
2022/07/04 12:01:09;;;;;;;3.70;2.00;;;23.90;46.00;;;;;;4980792;28;20451;-87
2022/07/04 12:03:35;;;;;;;6.87;2.00;;;24.20;46.30;;;;;;4980432;28;20446;-87
2022/07/04 12:06:05;;;;;;;3.47;2.70;;;24.50;46.20;;;;;;4978869;28;20542;-88
2022/07/04 12:08:32;;;;;;;6.13;2.87;;;24.40;46.30;;;;;;4980056;28;20412;-88
2022/07/04 12:10:57;;;;;;;6.57;4.20;;;24.20;47.10;;;;;;4978547;28;21122;-87
2022/07/04 12:13:24;;;;;;;9.33;4.90;;;23.70;45.30;;;;;;4979049;28;20465;-88
2022/07/04 12:15:56;;;;;;;12.70;4.70;;;23.60;45.80;;;;;;4979303;28;20200;-88
2022/07/04 12:18:24;;;;;;;6.77;3.90;;;23.50;46.40;;;;;;4978798;28;20501;-87
2022/07/04 12:20:51;;;;;;;9.63;3.37;;;23.50;46.70;;;;;;4980575;28;20515;-87
2022/07/04 12:23:20;;;;;;;6.13;3.53;;;23.60;46.90;;;;;;4983132;28;20450;-87
2022/07/04 12:25:47;;;;;;;3.90;3.00;;;23.40;46.00;;;;;;4981071;28;20558;-87
2022/07/04 12:28:14;;;;;;;4.97;2.90;;;23.30;46.90;;;;;;4979229;28;20430;-87
2022/07/04 12:30:55;;;;;;;7.80;3.90;;;23.40;47.50;;;;;;4961891;28;20851;-89
2022/07/04 12:33:23;;;;;;;8.47;3.80;;;23.40;47.30;;;;;;4978054;28;21069;-87
2022/07/04 12:36:00;;;;;;;4.43;3.23;;;23.30;47.80;;;;;;4985209;28;20439;-87
2022/07/04 12:38:39;;;;;;;5.17;3.00;;;23.20;47.90;;;;;;4979596;28;20426;-87
2022/07/04 12:41:11;;;;;;;3.27;2.97;;;23.30;48.10;;;;;;4980796;28;20415;-87
2022/07/04 12:43:40;;;;;;;8.87;3.50;;;23.50;48.20;;;;;;4979996;28;20431;-88
2022/07/04 12:46:08;;;;;;;5.23;3.57;;;23.60;47.70;;;;;;4981038;28;20447;-88
2022/07/04 12:48:34;;;;;;;11.17;5.13;;;23.70;48.20;;;;;;4979189;28;20427;-87
2022/07/04 12:51:17;;;;;;;5.80;4.00;;;23.70;48.30;;;;;;4964854;28;20639;-88
2022/07/04 12:53:45;;;;;;;8.83;3.90;;;23.60;48.60;;;;;;4996213;28;20512;-87
2022/07/04 12:56:40;;;;;;;7.93;4.30;;;23.50;49.60;;;;;;4979395;28;20439;-87
2022/07/04 12:59:11;;;;;;;6.57;3.23;;;23.60;50.20;;;;;;4987969;28;20454;-87
2022/07/04 13:01:38;;;;;;;8.80;4.67;;;23.70;50.00;;;;;;4998888;28;20457;-87
2022/07/04 13:04:04;;;;;;;5.77;3.80;;;23.60;49.70;;;;;;4997260;28;20910;-88
2022/07/04 13:06:30;;;;;;;5.97;3.73;;;24.00;47.70;;;;;;4995760;28;20537;-88
2022/07/04 13:08:56;;;;;;;7.27;3.53;;;23.90;48.70;;;;;;4995948;28;20187;-88
2022/07/04 13:14:07;;;;;;;7.30;3.80;;;24.00;48.40;;;;;;4997529;28;20513;-87
2022/07/04 13:16:33;;;;;;;6.70;4.07;;;24.00;49.20;;;;;;4998264;28;20430;-87